Time;durP1;ratioP1;P1;durP2;ratioP2;P2;SDS_P1;SDS_P2;PMS_P1;PMS_P2;Temp;Humidity;BMP_temperature;BMP_pressure;BME280_temperature;BME280_humidity;BME280_pressure;Samples;Min_cycle;Max_cycle;Signal;HPM_P1;HPM_P2
2023/03/02 00:02:28;;;;;;;6.28;3.45;;;;;;;;;;10399942;28;20024;-72
2023/03/02 00:07:30;;;;;;;6.38;3.67;;;;;;;;;;10404567;28;20411;-78
2023/03/02 00:12:31;;;;;;;4.97;3.22;;;;;;;;;;10402316;28;20013;-76
2023/03/02 00:17:31;;;;;;;6.53;3.00;;;;;;;;;;10384332;28;20028;-72
2023/03/02 00:22:32;;;;;;;6.43;3.35;;;;;;;;;;10402586;28;20040;-77
2023/03/02 00:27:32;;;;;;;7.25;2.88;;;;;;;;;;10406130;28;20033;-76
2023/03/02 00:32:33;;;;;;;8.48;3.00;;;;;;;;;;10399582;28;20210;-78
2023/03/02 00:37:35;;;;;;;6.47;3.50;;;;;;;;;;10401465;28;20048;-81
2023/03/02 00:42:36;;;;;;;6.45;3.38;;;;;;;;;;10405140;28;20037;-81
2023/03/02 00:47:36;;;;;;;4.72;2.60;;;;;;;;;;10402189;28;20104;-71
2023/03/02 00:52:37;;;;;;;4.20;2.72;;;;;;;;;;10401031;28;20407;-77
2023/03/02 00:57:37;;;;;;;8.40;2.55;;;;;;;;;;10401554;28;20503;-82
2023/03/02 01:02:42;;;;;;;4.65;2.70;;;;;;;;;;10400450;28;20056;-71
2023/03/02 01:07:42;;;;;;;4.53;3.20;;;;;;;;;;10400692;28;20025;-72
2023/03/02 01:12:43;;;;;;;5.78;2.88;;;;;;;;;;10400124;28;20022;-73
2023/03/02 01:17:45;;;;;;;4.07;2.55;;;;;;;;;;10398862;28;20167;-78
2023/03/02 01:22:47;;;;;;;3.20;2.42;;;;;;;;;;10405602;28;20097;-76
2023/03/02 01:27:47;;;;;;;4.85;2.25;;;;;;;;;;10398735;28;20365;-73
2023/03/02 01:32:47;;;;;;;3.65;1.90;;;;;;;;;;10398735;28;20018;-73
2023/03/02 01:37:48;;;;;;;4.30;1.58;;;;;;;;;;10399614;28;20590;-74
2023/03/02 01:42:55;;;;;;;3.67;1.92;;;;;;;;;;10399281;28;20508;-72
2023/03/02 01:47:55;;;;;;;3.33;1.47;;;;;;;;;;10408776;28;20064;-79
2023/03/02 01:52:56;;;;;;;3.35;1.48;;;;;;;;;;10390556;28;20117;-75
2023/03/02 01:57:56;;;;;;;3.55;1.65;;;;;;;;;;10415008;28;20256;-75
2023/03/02 02:03:07;;;;;;;2.70;1.45;;;;;;;;;;10435380;28;20027;-75
2023/03/02 02:08:08;;;;;;;3.20;1.25;;;;;;;;;;10416166;28;20032;-79
2023/03/02 02:13:09;;;;;;;5.38;1.88;;;;;;;;;;10406899;28;20026;-74
2023/03/02 02:18:10;;;;;;;2.28;1.40;;;;;;;;;;10382753;28;20076;-74
2023/03/02 02:23:16;;;;;;;4.00;1.83;;;;;;;;;;10430173;28;20032;-79
2023/03/02 02:28:19;;;;;;;3.55;2.10;;;;;;;;;;10415814;28;20018;-74
2023/03/02 02:33:21;;;;;;;2.67;1.73;;;;;;;;;;10405557;28;20017;-79
2023/03/02 02:38:21;;;;;;;3.05;1.88;;;;;;;;;;10406114;28;20090;-74
2023/03/02 02:43:22;;;;;;;3.80;2.05;;;;;;;;;;10405051;28;20109;-77
2023/03/02 02:48:25;;;;;;;3.03;1.50;;;;;;;;;;10405338;28;20088;-78
2023/03/02 02:53:33;;;;;;;2.90;1.95;;;;;;;;;;10406227;28;20014;-77
2023/03/02 02:58:51;;;;;;;2.58;1.63;;;;;;;;;;10407082;28;20026;-74
2023/03/02 03:03:53;;;;;;;3.00;1.85;;;;;;;;;;10404294;28;20041;-79
2023/03/02 03:08:56;;;;;;;3.40;2.00;;;;;;;;;;10406886;28;20025;-76
2023/03/02 03:13:57;;;;;;;3.38;1.77;;;;;;;;;;10403810;28;20498;-72
2023/03/02 03:19:17;;;;;;;2.47;1.90;;;;;;;;;;10403817;28;20120;-72
2023/03/02 03:24:18;;;;;;;3.22;1.77;;;;;;;;;;10402749;28;20414;-73
2023/03/02 03:29:18;;;;;;;4.20;1.95;;;;;;;;;;10404168;28;20018;-71
2023/03/02 03:34:19;;;;;;;2.25;1.60;;;;;;;;;;10405608;28;20095;-77
2023/03/02 03:39:19;;;;;;;6.03;1.77;;;;;;;;;;10426741;28;20022;-78
2023/03/02 03:44:20;;;;;;;3.27;2.07;;;;;;;;;;10388341;28;20503;-75
2023/03/02 03:49:20;;;;;;;4.78;2.25;;;;;;;;;;10403454;28;20545;-76
2023/03/02 03:54:21;;;;;;;5.03;2.35;;;;;;;;;;10388798;28;20439;-80
2023/03/02 03:59:22;;;;;;;5.28;2.08;;;;;;;;;;10412753;28;20331;-74
2023/03/02 04:04:25;;;;;;;4.55;2.85;;;;;;;;;;10404592;28;20407;-76
2023/03/02 04:09:27;;;;;;;5.28;2.85;;;;;;;;;;10412333;28;20036;-80
2023/03/02 04:14:27;;;;;;;4.65;2.00;;;;;;;;;;10404067;28;20037;-76
2023/03/02 04:19:28;;;;;;;3.83;2.15;;;;;;;;;;10403198;28;20085;-78
2023/03/02 04:24:29;;;;;;;4.80;2.10;;;;;;;;;;10376230;28;20083;-77
2023/03/02 04:29:31;;;;;;;3.72;2.47;;;;;;;;;;10429821;28;20038;-73
2023/03/02 04:34:31;;;;;;;4.13;2.88;;;;;;;;;;10403261;28;20427;-80
2023/03/02 04:39:31;;;;;;;5.63;3.50;;;;;;;;;;10403269;28;20029;-74
2023/03/02 04:44:33;;;;;;;6.32;3.88;;;;;;;;;;10404014;28;20017;-73
2023/03/02 04:49:33;;;;;;;6.75;4.15;;;;;;;;;;10401608;28;20032;-75
2023/03/02 04:54:33;;;;;;;8.90;5.20;;;;;;;;;;10412312;28;20099;-79
2023/03/02 04:59:33;;;;;;;7.22;4.25;;;;;;;;;;10398134;28;20140;-77
2023/03/02 05:04:34;;;;;;;7.03;4.27;;;;;;;;;;10398875;28;20022;-76
2023/03/02 05:09:34;;;;;;;9.20;4.70;;;;;;;;;;10399811;28;20291;-72
2023/03/02 05:14:34;;;;;;;6.45;4.80;;;;;;;;;;10396722;28;20136;-85
2023/03/02 05:19:35;;;;;;;7.13;5.13;;;;;;;;;;10396111;28;20472;-76
2023/03/02 05:24:36;;;;;;;8.43;5.78;;;;;;;;;;10397603;28;20029;-83
2023/03/02 05:29:36;;;;;;;9.18;5.80;;;;;;;;;;10391781;28;20499;-79
2023/03/02 05:34:37;;;;;;;8.52;5.32;;;;;;;;;;10388947;28;20045;-80
2023/03/02 05:39:38;;;;;;;10.65;5.60;;;;;;;;;;10394675;28;20335;-81
2023/03/02 05:44:38;;;;;;;8.80;5.60;;;;;;;;;;10393812;28;20488;-83
2023/03/02 05:49:39;;;;;;;9.05;4.85;;;;;;;;;;10393544;28;20017;-77
2023/03/02 05:54:39;;;;;;;7.32;4.97;;;;;;;;;;10368168;28;20365;-78
2023/03/02 05:59:40;;;;;;;9.45;5.72;;;;;;;;;;10408569;28;20432;-74
2023/03/02 06:04:41;;;;;;;11.57;5.83;;;;;;;;;;10398675;28;20047;-75
2023/03/02 06:09:42;;;;;;;8.23;5.35;;;;;;;;;;10376876;28;20519;-77
2023/03/02 06:14:42;;;;;;;9.95;5.68;;;;;;;;;;10394563;28;20104;-75
2023/03/02 06:19:43;;;;;;;10.75;6.57;;;;;;;;;;10398854;28;20394;-75
2023/03/02 06:24:44;;;;;;;11.40;5.82;;;;;;;;;;10379320;28;20033;-80
2023/03/02 06:29:44;;;;;;;11.40;7.13;;;;;;;;;;10396096;28;20022;-75
2023/03/02 06:34:45;;;;;;;12.68;5.97;;;;;;;;;;10396164;28;20484;-74
2023/03/02 06:39:45;;;;;;;9.03;6.33;;;;;;;;;;10408829;28;20018;-75
2023/03/02 06:44:45;;;;;;;8.90;6.45;;;;;;;;;;10404665;28;20040;-76
2023/03/02 06:49:45;;;;;;;9.55;5.35;;;;;;;;;;10416853;28;20025;-80
2023/03/02 06:54:46;;;;;;;12.67;6.63;;;;;;;;;;10402376;28;20025;-78
2023/03/02 06:59:46;;;;;;;22.00;8.18;;;;;;;;;;10401954;28;20117;-80
2023/03/02 07:04:46;;;;;;;10.05;6.53;;;;;;;;;;10387146;28;20021;-81
2023/03/02 07:09:46;;;;;;;12.90;7.35;;;;;;;;;;10404732;28;20564;-75
2023/03/02 07:14:47;;;;;;;12.75;7.25;;;;;;;;;;10418681;28;20021;-80
2023/03/02 07:19:47;;;;;;;9.65;6.22;;;;;;;;;;10406865;28;20101;-80
2023/03/02 07:24:47;;;;;;;14.20;6.80;;;;;;;;;;10396901;28;20025;-80
2023/03/02 07:29:48;;;;;;;12.80;6.63;;;;;;;;;;10416292;28;20075;-81
2023/03/02 07:34:48;;;;;;;9.20;5.87;;;;;;;;;;10384497;28;20132;-79
2023/03/02 07:39:49;;;;;;;13.32;7.43;;;;;;;;;;10407362;28;20079;-77
2023/03/02 07:44:53;;;;;;;14.87;8.13;;;;;;;;;;10396405;28;20083;-79
2023/03/02 07:49:53;;;;;;;14.13;7.38;;;;;;;;;;10401985;28;20104;-72
2023/03/02 07:54:53;;;;;;;14.55;6.55;;;;;;;;;;10383165;28;20026;-76
2023/03/02 07:59:53;;;;;;;11.13;6.13;;;;;;;;;;10404588;28;20018;-76
2023/03/02 08:04:54;;;;;;;10.45;5.50;;;;;;;;;;10416192;28;20028;-80
2023/03/02 08:09:54;;;;;;;8.05;5.47;;;;;;;;;;10409710;28;20033;-69
2023/03/02 08:14:55;;;;;;;9.43;5.40;;;;;;;;;;10398692;28;20120;-73
2023/03/02 08:19:55;;;;;;;9.47;5.20;;;;;;;;;;10400072;28;20321;-74
2023/03/02 08:24:55;;;;;;;11.25;5.75;;;;;;;;;;10390183;28;20116;-79
2023/03/02 08:29:56;;;;;;;11.93;5.23;;;;;;;;;;10400238;28;20095;-76
2023/03/02 08:34:56;;;;;;;10.80;7.10;;;;;;;;;;10390972;28;20496;-74
2023/03/02 08:39:56;;;;;;;11.93;6.53;;;;;;;;;;10395201;28;20052;-78
2023/03/02 08:44:56;;;;;;;11.63;6.75;;;;;;;;;;10402858;28;20080;-74
2023/03/02 08:49:57;;;;;;;16.10;7.57;;;;;;;;;;10390252;28;20025;-81
2023/03/02 08:54:57;;;;;;;11.73;7.17;;;;;;;;;;10399212;28;20055;-74
2023/03/02 08:59:57;;;;;;;10.27;7.00;;;;;;;;;;10381887;28;20512;-77
2023/03/02 09:04:59;;;;;;;12.27;7.07;;;;;;;;;;10374653;28;20049;-81
2023/03/02 09:10:00;;;;;;;11.82;7.50;;;;;;;;;;10386412;28;20087;-75
2023/03/02 09:15:01;;;;;;;12.98;7.70;;;;;;;;;;10411044;28;20099;-79
2023/03/02 09:20:01;;;;;;;10.77;6.70;;;;;;;;;;10385242;28;20575;-76
2023/03/02 09:25:06;;;;;;;11.00;6.53;;;;;;;;;;10400921;28;20589;-75
2023/03/02 09:30:07;;;;;;;17.00;7.07;;;;;;;;;;10397670;28;20033;-80
2023/03/02 09:35:09;;;;;;;11.30;6.88;;;;;;;;;;10409821;28;20503;-76
2023/03/02 09:40:20;;;;;;;14.88;7.90;;;;;;;;;;10391245;28;20052;-77
2023/03/02 09:45:24;;;;;;;15.88;8.00;;;;;;;;;;10397953;28;20029;-76
2023/03/02 09:50:31;;;;;;;11.23;7.50;;;;;;;;;;10400518;28;20038;-74
2023/03/02 09:55:32;;;;;;;10.73;6.97;;;;;;;;;;10403208;28;20538;-73
2023/03/02 10:00:36;;;;;;;10.05;7.00;;;;;;;;;;10400683;28;20037;-76
2023/03/02 10:05:41;;;;;;;10.00;6.43;;;;;;;;;;10404159;28;20549;-74
2023/03/02 10:10:50;;;;;;;9.95;5.88;;;;;;;;;;10397695;28;20017;-73
2023/03/02 10:15:56;;;;;;;9.20;5.90;;;;;;;;;;10408884;28;20116;-77
2023/03/02 10:20:59;;;;;;;7.82;5.13;;;;;;;;;;10396976;28;20029;-74
2023/03/02 10:26:08;;;;;;;10.60;5.82;;;;;;;;;;10396210;28;20037;-80
2023/03/02 10:31:13;;;;;;;10.10;5.32;;;;;;;;;;10404622;28;20492;-78
2023/03/02 10:36:20;;;;;;;9.13;5.32;;;;;;;;;;10405594;28;20677;-77
2023/03/02 10:41:27;;;;;;;8.32;5.90;;;;;;;;;;10404162;28;20466;-73
2023/03/02 10:46:37;;;;;;;7.75;5.03;;;;;;;;;;10400841;28;20060;-74
2023/03/02 10:51:37;;;;;;;7.68;4.68;;;;;;;;;;10418035;28;20060;-74
2023/03/02 10:56:40;;;;;;;8.27;4.53;;;;;;;;;;10403372;28;20052;-76
2023/03/02 11:01:40;;;;;;;10.25;4.78;;;;;;;;;;10419485;28;20032;-81
2023/03/02 11:06:40;;;;;;;10.02;5.20;;;;;;;;;;10402606;28;20034;-75
2023/03/02 11:11:47;;;;;;;7.93;5.40;;;;;;;;;;10405224;28;20037;-80
2023/03/02 11:16:48;;;;;;;16.98;5.22;;;;;;;;;;10404096;28;20037;-76
2023/03/02 11:22:01;;;;;;;11.40;5.67;;;;;;;;;;10400054;28;20174;-77
2023/03/02 11:27:10;;;;;;;15.77;5.80;;;;;;;;;;10412334;28;20190;-71
2023/03/02 11:32:31;;;;;;;18.13;5.78;;;;;;;;;;10399263;28;20060;-79
2023/03/02 11:37:35;;;;;;;10.23;5.75;;;;;;;;;;10389184;28;20326;-82
2023/03/02 11:42:37;;;;;;;13.68;5.97;;;;;;;;;;10394928;28;20465;-80
2023/03/02 11:47:38;;;;;;;8.35;5.35;;;;;;;;;;10369431;28;20017;-79
2023/03/02 11:52:43;;;;;;;13.23;5.10;;;;;;;;;;10396383;28;20021;-78
2023/03/02 11:57:48;;;;;;;20.38;5.00;;;;;;;;;;10374459;28;20428;-75
2023/03/02 12:03:18;;;;;;;9.60;3.78;;;;;;;;;;10396051;28;20017;-78
2023/03/02 12:08:18;;;;;;;9.80;4.47;;;;;;;;;;10374100;28;20091;-79
2023/03/02 12:13:21;;;;;;;16.38;4.80;;;;;;;;;;10389099;28;20102;-78
2023/03/02 12:18:21;;;;;;;13.77;5.43;;;;;;;;;;10402886;28;20025;-74
2023/03/02 12:23:23;;;;;;;13.20;5.30;;;;;;;;;;10389229;28;20048;-80
2023/03/02 12:28:32;;;;;;;10.55;5.63;;;;;;;;;;10409719;28;20311;-75
2023/03/02 12:33:37;;;;;;;15.40;6.30;;;;;;;;;;10385243;28;20032;-72
2023/03/02 12:38:40;;;;;;;11.43;5.00;;;;;;;;;;10424996;28;20468;-78
2023/03/02 12:44:00;;;;;;;19.08;6.90;;;;;;;;;;10424895;28;20459;-76
2023/03/02 12:49:13;;;;;;;8.25;5.65;;;;;;;;;;10410046;28;20065;-81
2023/03/02 12:54:17;;;;;;;15.13;5.88;;;;;;;;;;10423272;28;20076;-79
2023/03/02 12:59:21;;;;;;;13.93;6.22;;;;;;;;;;10426648;28;20024;-75
2023/03/02 13:04:22;;;;;;;12.65;7.35;;;;;;;;;;10426237;28;20032;-75
2023/03/02 13:09:23;;;;;;;13.68;5.78;;;;;;;;;;10425947;28;20028;-79
2023/03/02 13:14:25;;;;;;;17.65;5.30;;;;;;;;;;10443240;28;20183;-82
2023/03/02 13:19:27;;;;;;;7.75;4.68;;;;;;;;;;10425806;28;20108;-74
2023/03/02 13:24:27;;;;;;;12.20;6.28;;;;;;;;;;10427071;28;20661;-72
2023/03/02 13:29:30;;;;;;;12.43;7.50;;;;;;;;;;10423692;28;20021;-81
2023/03/02 13:34:43;;;;;;;13.55;7.45;;;;;;;;;;10442801;28;20094;-78
2023/03/02 13:39:53;;;;;;;11.55;5.97;;;;;;;;;;10427695;28;20112;-77
2023/03/02 13:44:53;;;;;;;9.65;5.93;;;;;;;;;;10433901;28;20025;-76
2023/03/02 13:49:53;;;;;;;17.63;8.07;;;;;;;;;;10448969;28;20303;-80
2023/03/02 13:54:55;;;;;;;11.68;6.50;;;;;;;;;;10451670;28;20535;-75
2023/03/02 13:59:55;;;;;;;21.38;8.35;;;;;;;;;;10431447;28;20037;-79
2023/03/02 14:04:56;;;;;;;12.70;7.13;;;;;;;;;;10448623;28;20021;-74
2023/03/02 14:09:56;;;;;;;13.63;6.85;;;;;;;;;;10431015;28;20134;-74
2023/03/02 14:14:58;;;;;;;17.30;8.95;;;;;;;;;;10430973;28;20028;-74
2023/03/02 14:19:58;;;;;;;19.65;10.27;;;;;;;;;;10421073;28;20055;-76
2023/03/02 14:25:14;;;;;;;24.33;9.77;;;;;;;;;;10440481;28;20117;-78
2023/03/02 14:30:16;;;;;;;22.50;9.05;;;;;;;;;;10410776;28;20029;-80
2023/03/02 14:35:16;;;;;;;25.55;9.73;;;;;;;;;;10437951;28;20040;-79
2023/03/02 14:40:20;;;;;;;20.77;8.87;;;;;;;;;;10438252;28;20017;-80
2023/03/02 14:45:22;;;;;;;18.83;8.80;;;;;;;;;;10428558;28;20084;-77
2023/03/02 14:50:22;;;;;;;15.98;8.90;;;;;;;;;;10439727;28;20024;-75
2023/03/02 14:55:24;;;;;;;17.17;8.68;;;;;;;;;;10430704;28;20589;-76
2023/03/02 15:00:25;;;;;;;17.25;8.00;;;;;;;;;;10416982;28;20041;-73
2023/03/02 15:05:25;;;;;;;17.15;7.93;;;;;;;;;;10435650;28;20051;-81
2023/03/02 15:10:27;;;;;;;22.33;8.87;;;;;;;;;;10457849;28;20021;-75
2023/03/02 15:15:29;;;;;;;16.85;8.85;;;;;;;;;;10450305;28;20024;-76
2023/03/02 15:20:29;;;;;;;14.57;8.60;;;;;;;;;;10429946;28;20491;-70
2023/03/02 15:25:29;;;;;;;16.63;8.57;;;;;;;;;;10424707;28;20021;-80
2023/03/02 15:30:31;;;;;;;18.80;10.43;;;;;;;;;;10427425;28;20541;-81
2023/03/02 15:35:32;;;;;;;16.83;8.80;;;;;;;;;;10408793;28;20049;-80
2023/03/02 15:40:34;;;;;;;20.60;9.38;;;;;;;;;;10428939;28;20494;-78
2023/03/02 15:45:34;;;;;;;19.55;9.50;;;;;;;;;;10418148;28;20028;-76
2023/03/02 15:50:35;;;;;;;12.98;6.45;;;;;;;;;;10426769;28;20563;-72
2023/03/02 15:55:38;;;;;;;16.05;9.18;;;;;;;;;;10443290;28;20049;-79
2023/03/02 16:00:38;;;;;;;18.50;8.93;;;;;;;;;;10427372;28;20085;-74
2023/03/02 16:05:39;;;;;;;15.23;7.82;;;;;;;;;;10419209;28;20135;-74
2023/03/02 16:10:41;;;;;;;18.35;9.32;;;;;;;;;;10426384;28;20082;-80
2023/03/02 16:15:41;;;;;;;15.13;7.35;;;;;;;;;;10425766;28;20086;-75
2023/03/02 16:20:42;;;;;;;17.13;8.60;;;;;;;;;;10441600;28;20057;-78
2023/03/02 16:25:42;;;;;;;17.47;7.10;;;;;;;;;;10437467;28;20021;-79
2023/03/02 16:30:43;;;;;;;14.57;7.43;;;;;;;;;;10439356;28;20069;-78
2023/03/02 16:35:45;;;;;;;14.57;6.57;;;;;;;;;;10420931;28;20310;-76
2023/03/02 16:40:46;;;;;;;17.75;7.40;;;;;;;;;;10426337;28;20029;-77
2023/03/02 16:45:48;;;;;;;16.17;8.00;;;;;;;;;;10428496;28;20112;-77
2023/03/02 16:50:55;;;;;;;12.10;6.07;;;;;;;;;;10441963;28;20029;-74
2023/03/02 16:55:57;;;;;;;19.40;7.63;;;;;;;;;;10443782;28;20498;-77
2023/03/02 17:00:59;;;;;;;13.13;6.22;;;;;;;;;;10385261;28;20045;-76
2023/03/02 17:06:01;;;;;;;16.10;7.07;;;;;;;;;;10408071;28;20032;-80
2023/03/02 17:11:01;;;;;;;15.25;6.30;;;;;;;;;;10440319;28;20440;-76
2023/03/02 17:16:02;;;;;;;13.63;6.57;;;;;;;;;;10447665;28;20033;-78
2023/03/02 17:21:03;;;;;;;10.97;5.77;;;;;;;;;;10429671;28;20029;-73
2023/03/02 17:26:04;;;;;;;16.42;6.88;;;;;;;;;;10434421;28;20112;-74
2023/03/02 17:31:04;;;;;;;17.25;7.40;;;;;;;;;;10422771;28;20422;-79
2023/03/02 17:36:06;;;;;;;13.27;6.03;;;;;;;;;;10426605;28;20063;-73
2023/03/02 17:41:07;;;;;;;17.70;7.28;;;;;;;;;;10440241;28;20087;-75
2023/03/02 17:46:15;;;;;;;19.15;8.18;;;;;;;;;;10425051;28;20261;-75
2023/03/02 17:51:15;;;;;;;20.92;8.45;;;;;;;;;;10424725;28;20068;-74
2023/03/02 17:56:20;;;;;;;19.92;8.30;;;;;;;;;;10442384;28;20531;-77
2023/03/02 18:01:21;;;;;;;14.18;6.95;;;;;;;;;;10411670;28;20371;-72
2023/03/02 18:06:21;;;;;;;16.55;7.00;;;;;;;;;;10408517;28;20040;-76
2023/03/02 18:11:22;;;;;;;12.30;7.17;;;;;;;;;;10435746;28;20112;-75
2023/03/02 18:16:23;;;;;;;15.30;6.30;;;;;;;;;;10401404;28;20029;-73
2023/03/02 18:21:23;;;;;;;13.80;6.85;;;;;;;;;;10409925;28;20068;-75
2023/03/02 18:26:24;;;;;;;15.45;6.50;;;;;;;;;;10439333;28;20036;-80
2023/03/02 18:31:24;;;;;;;11.03;5.23;;;;;;;;;;10437390;28;20033;-75
2023/03/02 18:36:24;;;;;;;15.07;6.80;;;;;;;;;;10429174;28;20111;-75
2023/03/02 18:41:25;;;;;;;11.80;5.93;;;;;;;;;;10435837;28;20024;-74
2023/03/02 18:46:26;;;;;;;11.88;6.22;;;;;;;;;;10432367;28;20033;-74
2023/03/02 18:51:26;;;;;;;15.50;6.55;;;;;;;;;;10438207;28;20075;-73
2023/03/02 18:56:27;;;;;;;17.63;7.15;;;;;;;;;;10440467;28;20044;-72
2023/03/02 19:01:29;;;;;;;14.85;6.50;;;;;;;;;;10446536;28;20040;-78
2023/03/02 19:06:29;;;;;;;16.55;7.05;;;;;;;;;;10440627;28;20115;-78
2023/03/02 19:11:30;;;;;;;17.27;6.65;;;;;;;;;;10435583;28;20044;-76
2023/03/02 19:16:31;;;;;;;19.33;8.18;;;;;;;;;;10460050;28;20303;-77
2023/03/02 19:21:31;;;;;;;16.63;7.40;;;;;;;;;;10469372;28;20154;-70
2023/03/02 19:26:32;;;;;;;12.85;6.60;;;;;;;;;;10469654;28;20032;-74
2023/03/02 19:31:32;;;;;;;11.60;5.95;;;;;;;;;;10446196;28;20050;-74
2023/03/02 19:36:32;;;;;;;14.70;7.63;;;;;;;;;;10459034;28;20379;-75
2023/03/02 19:41:32;;;;;;;16.70;7.37;;;;;;;;;;10447488;28;20550;-74
2023/03/02 19:46:35;;;;;;;15.63;7.40;;;;;;;;;;10448787;28;20135;-74
2023/03/02 19:51:35;;;;;;;19.95;8.20;;;;;;;;;;10435645;28;20110;-74
2023/03/02 19:56:38;;;;;;;14.17;6.33;;;;;;;;;;10418763;28;20027;-73
2023/03/02 20:01:39;;;;;;;10.88;6.20;;;;;;;;;;10428297;28;20118;-74
2023/03/02 20:06:39;;;;;;;11.45;6.55;;;;;;;;;;10434666;28;20163;-78
2023/03/02 20:11:41;;;;;;;11.93;5.63;;;;;;;;;;10445145;28;20032;-75
2023/03/02 20:16:42;;;;;;;11.60;6.10;;;;;;;;;;10445239;28;20486;-74
2023/03/02 20:21:42;;;;;;;14.95;5.70;;;;;;;;;;10440101;28;20029;-73
2023/03/02 20:26:44;;;;;;;12.80;6.00;;;;;;;;;;10424328;28;20542;-78
2023/03/02 20:31:45;;;;;;;12.02;6.30;;;;;;;;;;10425771;28;20537;-72
2023/03/02 20:36:46;;;;;;;7.85;3.97;;;;;;;;;;10416707;28;20049;-77
2023/03/02 20:41:46;;;;;;;10.43;5.50;;;;;;;;;;10449392;28;20028;-73
2023/03/02 20:46:48;;;;;;;8.32;4.22;;;;;;;;;;10435447;28;20097;-73
2023/03/02 20:51:53;;;;;;;10.50;4.43;;;;;;;;;;10420834;28;20086;-74
2023/03/02 20:56:54;;;;;;;9.57;4.35;;;;;;;;;;10431900;28;20348;-77
2023/03/02 21:01:56;;;;;;;4.93;3.25;;;;;;;;;;10430833;28;20116;-78
2023/03/02 21:06:58;;;;;;;6.93;3.92;;;;;;;;;;10415609;28;20510;-79
2023/03/02 21:11:58;;;;;;;5.07;2.75;;;;;;;;;;10453448;28;20048;-77
2023/03/02 21:17:03;;;;;;;6.57;3.95;;;;;;;;;;10437527;28;20021;-72
2023/03/02 21:22:04;;;;;;;7.90;4.20;;;;;;;;;;10454725;28;20163;-77
2023/03/02 21:27:08;;;;;;;6.55;4.15;;;;;;;;;;10419904;28;20119;-73
2023/03/02 21:32:09;;;;;;;6.82;3.55;;;;;;;;;;10442991;28;20560;-75
2023/03/02 21:37:10;;;;;;;6.35;3.63;;;;;;;;;;10431798;28;20057;-75
2023/03/02 21:42:10;;;;;;;10.23;4.57;;;;;;;;;;10400673;28;20030;-72
2023/03/02 21:47:10;;;;;;;5.57;4.00;;;;;;;;;;10388484;28;20018;-75
2023/03/02 21:52:12;;;;;;;6.47;3.70;;;;;;;;;;10420398;28;20280;-79
2023/03/02 21:57:12;;;;;;;6.70;4.13;;;;;;;;;;10426254;28;20193;-79
2023/03/02 22:02:12;;;;;;;7.90;4.40;;;;;;;;;;10445096;28;20502;-73
2023/03/02 22:07:13;;;;;;;4.65;3.03;;;;;;;;;;10439838;28;20024;-71
2023/03/02 22:12:13;;;;;;;5.32;3.17;;;;;;;;;;10418246;28;20526;-74
2023/03/02 22:17:16;;;;;;;5.88;3.80;;;;;;;;;;10445148;28;20054;-75
2023/03/02 22:22:24;;;;;;;6.70;3.95;;;;;;;;;;10428616;28;20074;-76
2023/03/02 22:27:28;;;;;;;5.57;3.20;;;;;;;;;;10417105;28;20029;-78
2023/03/02 22:32:29;;;;;;;5.75;3.58;;;;;;;;;;10428712;28;20029;-76
2023/03/02 22:37:32;;;;;;;8.60;4.00;;;;;;;;;;10445378;28;20072;-77
2023/03/02 22:42:32;;;;;;;4.88;3.80;;;;;;;;;;10430315;28;20033;-73
2023/03/02 22:47:33;;;;;;;7.32;4.55;;;;;;;;;;10415247;28;20025;-75
2023/03/02 22:52:38;;;;;;;7.28;4.15;;;;;;;;;;10443339;28;20031;-80
2023/03/02 22:57:39;;;;;;;8.35;4.97;;;;;;;;;;10445660;28;20029;-81
2023/03/02 23:02:41;;;;;;;7.90;4.53;;;;;;;;;;10433710;28;20495;-72
2023/03/02 23:07:41;;;;;;;6.22;3.92;;;;;;;;;;10431678;28;20114;-76
2023/03/02 23:12:42;;;;;;;9.73;4.40;;;;;;;;;;10428620;28;20021;-78
2023/03/02 23:17:45;;;;;;;11.30;5.13;;;;;;;;;;10438982;28;20100;-71
2023/03/02 23:22:45;;;;;;;7.55;4.70;;;;;;;;;;10438678;28;20071;-77
2023/03/02 23:27:46;;;;;;;9.30;5.07;;;;;;;;;;10452088;28;20024;-70
2023/03/02 23:32:46;;;;;;;9.23;4.90;;;;;;;;;;10424324;28;20037;-80
2023/03/02 23:37:46;;;;;;;8.25;4.60;;;;;;;;;;10447647;28;20045;-78
2023/03/02 23:42:47;;;;;;;7.15;3.90;;;;;;;;;;10430427;28;20025;-77
2023/03/02 23:47:49;;;;;;;7.07;4.28;;;;;;;;;;10437114;28;20055;-78
2023/03/02 23:52:49;;;;;;;7.05;4.45;;;;;;;;;;10447329;28;20020;-78
2023/03/02 23:57:53;;;;;;;9.10;4.63;;;;;;;;;;10432339;28;20025;-77
